Terminal Aerodrome Forecast
Issued by NWS Pittsburgh, PA

Current Version | Previous Version | Graphics & Text | Print | Product List | Glossary On
Versions: 1 2 3 4 5 6 7 8 9 10 11 12 13 14 15 16 17 18 19 20 21 22 23 24 25 26 27 28 29 30 31 32 33 34 35 36
101
FTUS41 KPBZ 221301 AAB
TAFPIT
TAF AMD
KPIT 221301Z 2213/2318 VRB03KT 5SM BR BKN100
     FM221400 09005KT P6SM BKN100
     FM230300 08010KT P6SM -SHRA OVC025
     FM230500 08012G20KT 4SM -SHRA BR OVC015=

USA.gov is the U.S. government's official web portal to all federal, state and local government web resources and services.